首页
METAR-TAF:

METAR-TAF

机场 :

阿塔蒂尔克国际机场

伊斯坦布尔 阿塔土克, 土耳其

纬度: 40-58N, 经度: 028-49E, 海拔: 48米

当前天气观测

该预报发布于22分钟前的18:20 UTC
风速8节,风向北转东北
温度 26°C
湿度 79%
气压 1018 hPa
能见度10公里或以上
多云层高于1800英尺

METAR: LTBA 231820Z 02008KT 9999 BKN018 26/22 Q1018 NOSIG RMK RWY17L 02009KT 340V050 RWY05 01010KT 340V040 RWY23 03009KT

时间: 21:42 (18:42 UTC)

预报

该预报发布于2小时和2分钟前的16:40 UTC
预报有效从23日的 18点(UTC)到 24日的 24点(UTC)
风速15节,风向
能见度10公里或以上
散云层高于2200英尺
成为
从 23日的 18点(UTC)到 23日的 21点(UTC)
风速5节,风向北转东北
成为
从 24日的 06点(UTC)到 24日的 09点(UTC)
风速18节,风向北转东北
能见度10公里或以上
1500米以下无云,无积雨云
成为
从 24日的 17点(UTC)到 24日的 20点(UTC)
风速8节,风向
散云层高于2500英尺

TAF: LTBA 231640Z 2318/2424 01015KT 9999 SCT022 BECMG 2318/2321 02005KT BECMG 2406/2409 03018KT CAVOK BECMG 2417/2420 01008KT SCT025

超过4000个机场的气象观测和天气预报(METAR&TAF报告)。

可查询的气象台以黄色和红色小点在地图上表示。

将鼠标移到小点上方,可查看气象台名称。

然后点击查看天气观测和预报。

如需切换地图:点击带黑十字的绿色按钮放大地图;点击带横线的绿色按钮缩小地图;或者点击绿色箭头查看邻近地区的地图。


METAR-TAF: